Overview Statistics Trail Chart Weather Telemetry Raw packets
 

This is the latest recevied weather packets stored in our database for station/object KO4YAW. If no packets are shown the sender has not sent any weather packets the latest 10 day(s).

<< 18 19 20 21 22 23 24 >>
Time Temp. Humidity Pressure Rain* Wind** Luminosity Snow
1788238121 16.67° C 84% 1021.6 hPa 0 mm - 0 W/m² -
1788237221 16.67° C 83% 1021.5 hPa 0 mm - 0 W/m² -
1788236321 16.67° C 82% 1021.6 hPa 0 mm - 0 W/m² -
1788235421 17.22° C 81% 1021.6 hPa 0 mm - 0 W/m² -
1788234521 17.22° C 81% 1022.1 hPa 0 mm - 0 W/m² -
1788233621 17.22° C 81% 1022.4 hPa 0 mm - 0 W/m² -
1788232721 17.22° C 82% 1022.2 hPa 0 mm - 0 W/m² -
1788231821 17.22° C 79% 1022.5 hPa 0 mm - 0 W/m² -
1788230921 18.33° C 77% 1022.9 hPa 0 mm - 0 W/m² -
1788230021 21.11° C 60% 1022.7 hPa 0 mm - 0 W/m² -
1788229121 23.33° C 44% 1021.4 hPa 0 mm - 0 W/m² -
1788228221 24.44° C 41% 1020.2 hPa 0 mm - 0 W/m² -
1788227321 25.56° C 34% 1019.8 hPa 0 mm - 0 W/m² -
1788226421 26.11° C 32% 1019.2 hPa 0 mm - 2 W/m² -
1788225521 26.67° C 31% 1019.1 hPa 0 mm - 8 W/m² -
1788224621 26.67° C 30% 1019.1 hPa 0 mm - 13 W/m² -
1788223721 27.22° C 30% 1019.3 hPa 0 mm - 16 W/m² -
1788222821 27.78° C 30% 1019.3 hPa 0 mm - 26 W/m² -
1788221921 28.33° C 30% 1019.5 hPa 0 mm - 61 W/m² -
1788221021 28.89° C 29% 1019.5 hPa 0 mm - 80 W/m² -
1788220121 30.56° C 27% 1019.5 hPa 0 mm - 200 W/m² -
1788219221 31.11° C 27% 1019.5 hPa 0 mm - 263 W/m² -
1788218321 31.11° C 25% 1019.3 hPa 0 mm - 457 W/m² -
1788217421 30° C 26% 1019.5 hPa 0 mm - 263 W/m² -
1788216521 30° C 27% 1019.7 hPa 0 mm - 208 W/m² -

* Rain since midnight (hover to see other rain measurements)
** Current wind speed in m/s (hover to see current wind gust speed)